Time;durP1;ratioP1;P1;durP2;ratioP2;P2;SDS_P1;SDS_P2;PMS_P1;PMS_P2;Temp;Humidity;BMP_temperature;BMP_pressure;BME280_temperature;BME280_humidity;BME280_pressure;Samples;Min_cycle;Max_cycle;Signal;HPM_P1;HPM_P2
2022/04/26 03:36:39;;;;;;;6.43;3.08;;;7.40;99.90;;;;;;5069656;28;20048;-75
2022/04/26 03:39:05;;;;;;;8.30;3.85;;;7.40;99.90;;;;;;5038475;28;20477;-73
2022/04/26 03:41:32;;;;;;;7.50;3.40;;;7.30;99.90;;;;;;5056300;28;20040;-75
2022/04/26 03:43:58;;;;;;;10.30;3.85;;;7.30;99.90;;;;;;5052245;28;20115;-76
2022/04/26 03:46:24;;;;;;;10.75;3.80;;;7.30;99.90;;;;;;5039132;28;20112;-74
2022/04/26 03:48:50;;;;;;;6.63;3.28;;;7.30;99.90;;;;;;5071542;28;20069;-75
2022/04/26 03:51:15;;;;;;;7.18;3.28;;;7.70;99.90;;;;;;5075018;28;20048;-76
2022/04/26 03:53:41;;;;;;;8.10;3.28;;;7.20;99.90;;;;;;5069288;28;20627;-75
2022/04/26 03:56:07;;;;;;;9.05;3.75;;;7.30;99.90;;;;;;5073902;28;20500;-75
2022/04/26 03:58:33;;;;;;;5.07;3.63;;;7.20;99.90;;;;;;5059276;28;20051;-75
2022/04/26 04:00:59;;;;;;;10.23;3.60;;;7.20;99.90;;;;;;5040283;28;20484;-77
2022/04/26 04:03:26;;;;;;;7.82;3.80;;;7.20;99.90;;;;;;5044492;28;20086;-77
2022/04/26 04:05:52;;;;;;;6.93;3.50;;;7.20;99.90;;;;;;5072804;28;20044;-75
2022/04/26 04:08:18;;;;;;;9.60;3.75;;;7.20;99.90;;;;;;5074054;28;20052;-75
2022/04/26 04:10:44;;;;;;;7.25;3.65;;;7.20;99.90;;;;;;5090085;28;20048;-75
2022/04/26 04:13:10;;;;;;;11.48;3.70;;;7.10;99.90;;;;;;5060253;28;20455;-75
2022/04/26 04:15:37;;;;;;;10.43;4.32;;;7.10;99.90;;;;;;5107637;27;20079;-75
2022/04/26 04:18:03;;;;;;;9.40;3.67;;;7.10;99.90;;;;;;5075600;28;20049;-75
2022/04/26 04:20:31;;;;;;;8.75;3.85;;;7.10;99.90;;;;;;5105987;27;20500;-75
2022/04/26 04:22:57;;;;;;;10.30;3.70;;;7.10;99.90;;;;;;5106710;27;20040;-76
2022/04/26 04:25:23;;;;;;;7.80;3.67;;;7.10;99.90;;;;;;5056273;28;20102;-76
2022/04/26 04:27:48;;;;;;;12.10;3.90;;;7.10;99.90;;;;;;5059712;28;20127;-76
2022/04/26 04:30:14;;;;;;;6.90;3.20;;;7.10;99.90;;;;;;5072863;28;20606;-75
2022/04/26 04:32:40;;;;;;;7.80;3.78;;;7.10;99.90;;;;;;5071819;28;20094;-76
2022/04/26 04:35:07;;;;;;;7.60;3.70;;;7.10;99.90;;;;;;5042955;28;20040;-74
2022/04/26 04:37:33;;;;;;;9.00;3.70;;;7.10;99.90;;;;;;5072980;28;20122;-75
2022/04/26 04:39:59;;;;;;;6.43;3.70;;;7.10;99.90;;;;;;5052675;28;20481;-76
2022/04/26 04:42:25;;;;;;;9.85;4.22;;;7.10;99.90;;;;;;5107532;27;20032;-76
2022/04/26 04:44:50;;;;;;;8.98;4.40;;;7.10;99.90;;;;;;5073635;28;20040;-76
2022/04/26 04:47:16;;;;;;;10.80;4.82;;;7.10;99.90;;;;;;5060201;28;20052;-75
2022/04/26 04:49:42;;;;;;;8.13;4.50;;;7.20;99.90;;;;;;5042601;28;20057;-75
2022/04/26 04:52:08;;;;;;;9.35;4.30;;;7.20;99.90;;;;;;5071548;28;20493;-76
2022/04/26 04:54:33;;;;;;;8.45;4.43;;;7.20;99.90;;;;;;5086909;28;20516;-75
2022/04/26 04:57:02;;;;;;;8.27;4.28;;;7.20;99.90;;;;;;5042444;28;20045;-74
2022/04/26 04:59:28;;;;;;;8.45;4.18;;;7.30;99.90;;;;;;5058408;28;20145;-75
2022/04/26 05:01:54;;;;;;;8.80;4.28;;;7.30;99.90;;;;;;5071074;28;20056;-74
2022/04/26 05:04:20;;;;;;;9.38;4.20;;;7.30;99.90;;;;;;5059798;28;20044;-75
2022/04/26 05:06:46;;;;;;;7.65;4.28;;;7.40;99.90;;;;;;5073954;28;20086;-75
2022/04/26 05:09:12;;;;;;;6.82;3.90;;;7.40;99.90;;;;;;5041711;28;20056;-75
2022/04/26 05:11:38;;;;;;;9.43;3.83;;;7.50;99.90;;;;;;5055685;28;20056;-76
2022/04/26 05:14:03;;;;;;;6.35;3.45;;;7.50;99.90;;;;;;5071722;28;20112;-75
2022/04/26 05:16:29;;;;;;;10.85;3.55;;;7.60;99.90;;;;;;5058892;28;20506;-75
2022/04/26 05:18:55;;;;;;;6.00;3.03;;;7.60;99.90;;;;;;5038025;28;20190;-75
2022/04/26 05:21:20;;;;;;;8.15;2.90;;;7.60;99.90;;;;;;5043290;28;20290;-76
2022/04/26 05:26:30;;;;;;;7.30;2.80;;;7.60;99.90;;;;;;5104663;27;20051;-74
2022/04/26 05:28:56;;;;;;;7.25;3.22;;;7.60;99.90;;;;;;5070501;28;20044;-75
2022/04/26 05:31:22;;;;;;;8.05;2.72;;;7.70;99.90;;;;;;5055327;28;20398;-75
2022/04/26 05:33:48;;;;;;;6.90;2.92;;;7.70;99.90;;;;;;5072422;28;20084;-75
2022/04/26 05:36:13;;;;;;;7.85;2.65;;;7.70;99.90;;;;;;5070654;28;20051;-75
2022/04/26 05:38:39;;;;;;;7.25;2.90;;;7.80;99.90;;;;;;5040812;28;20469;-76
2022/04/26 05:41:05;;;;;;;7.55;2.92;;;7.80;99.90;;;;;;5056824;28;20497;-75
2022/04/26 05:43:33;;;;;;;6.20;2.97;;;7.80;99.90;;;;;;5069764;28;20072;-75
2022/04/26 05:45:59;;;;;;;6.95;3.05;;;7.90;99.90;;;;;;5056728;28;20045;-75
2022/04/26 05:48:25;;;;;;;6.93;2.60;;;8.00;99.90;;;;;;5073928;28;20070;-75
2022/04/26 05:50:51;;;;;;;5.82;3.03;;;8.00;99.90;;;;;;5087969;28;21158;-76
2022/04/26 05:53:16;;;;;;;8.38;2.88;;;8.10;99.90;;;;;;5056417;28;20138;-77
2022/04/26 05:55:42;;;;;;;7.65;3.03;;;8.20;99.90;;;;;;5073194;28;20091;-76
2022/04/26 05:58:09;;;;;;;7.90;2.97;;;8.30;99.90;;;;;;5075727;28;20125;-75
2022/04/26 06:00:35;;;;;;;4.60;2.38;;;8.30;99.90;;;;;;5039527;28;20056;-76
2022/04/26 06:03:01;;;;;;;8.65;3.05;;;8.40;99.90;;;;;;5057303;28;20063;-76
2022/04/26 06:05:27;;;;;;;6.53;2.72;;;8.40;99.90;;;;;;5074807;28;20052;-76
2022/04/26 06:07:52;;;;;;;5.20;2.88;;;8.50;99.90;;;;;;5041441;28;20051;-76
2022/04/26 06:10:18;;;;;;;7.28;3.22;;;8.50;99.90;;;;;;5105232;27;20049;-77
2022/04/26 06:12:45;;;;;;;5.75;2.70;;;8.50;99.90;;;;;;5040650;28;20140;-76
2022/04/26 06:15:11;;;;;;;7.57;2.92;;;8.60;99.90;;;;;;5075353;28;20583;-76
2022/04/26 06:17:37;;;;;;;5.32;2.72;;;8.60;99.90;;;;;;5107227;27;20072;-77
2022/04/26 06:20:04;;;;;;;5.90;2.83;;;8.60;99.90;;;;;;5048577;28;20090;-75
2022/04/26 06:22:29;;;;;;;4.22;2.35;;;8.60;99.90;;;;;;5073366;28;20059;-75
2022/04/26 06:24:55;;;;;;;5.65;2.60;;;8.60;99.90;;;;;;5094112;28;20051;-75
2022/04/26 06:27:21;;;;;;;7.45;2.85;;;8.70;99.90;;;;;;5042220;28;20171;-75
2022/04/26 06:29:47;;;;;;;6.18;2.80;;;8.70;99.90;;;;;;5074700;28;20136;-74
2022/04/26 06:32:13;;;;;;;6.03;3.30;;;8.80;99.90;;;;;;5047548;28;20066;-76
2022/04/26 06:34:39;;;;;;;6.20;2.92;;;8.90;99.90;;;;;;5055938;28;20040;-74
2022/04/26 06:37:05;;;;;;;5.72;2.75;;;9.10;99.90;;;;;;5074582;28;20083;-76
2022/04/26 06:39:31;;;;;;;5.78;3.05;;;9.20;99.90;;;;;;5043139;28;20063;-77
2022/04/26 06:41:56;;;;;;;8.07;2.88;;;9.30;99.90;;;;;;5071226;28;20382;-76
2022/04/26 06:44:22;;;;;;;8.55;2.72;;;9.40;99.90;;;;;;5044212;28;20079;-76
2022/04/26 06:46:48;;;;;;;6.53;2.90;;;9.50;99.90;;;;;;5040852;28;20084;-77
2022/04/26 06:49:14;;;;;;;5.53;2.80;;;9.60;99.90;;;;;;5072958;28;20056;-78
2022/04/26 06:51:44;;;;;;;4.95;2.65;;;9.70;99.90;;;;;;5072210;28;20050;-76
2022/04/26 06:54:10;;;;;;;4.45;2.53;;;9.70;99.90;;;;;;5038897;28;20053;-76
2022/04/26 06:56:36;;;;;;;7.50;2.40;;;9.70;99.90;;;;;;5107590;27;20084;-76
2022/04/26 06:59:02;;;;;;;6.88;2.58;;;9.70;99.90;;;;;;5040925;28;20071;-76
2022/04/26 07:01:28;;;;;;;7.35;2.45;;;9.80;99.90;;;;;;5059742;28;20182;-76
2022/04/26 07:03:54;;;;;;;4.82;2.58;;;9.80;99.90;;;;;;5108058;27;20115;-78
2022/04/26 07:06:20;;;;;;;6.13;2.45;;;10.30;99.90;;;;;;5071873;28;20043;-76
2022/04/26 07:08:46;;;;;;;3.92;2.13;;;10.00;99.90;;;;;;5041377;28;20048;-76
2022/04/26 07:11:14;;;;;;;4.68;2.40;;;10.10;99.90;;;;;;5042553;28;20048;-75
2022/04/26 07:13:40;;;;;;;3.42;2.42;;;10.30;99.90;;;;;;5107559;27;20103;-76
2022/04/26 07:16:06;;;;;;;4.80;2.50;;;10.40;99.90;;;;;;5074727;28;20097;-76
2022/04/26 07:18:34;;;;;;;5.45;2.40;;;10.60;99.90;;;;;;5042652;28;20043;-76
2022/04/26 07:21:00;;;;;;;5.22;2.50;;;10.80;99.90;;;;;;5075792;28;20051;-76
2022/04/26 07:23:26;;;;;;;6.22;2.20;;;11.00;99.90;;;;;;5060039;28;20480;-76
2022/04/26 07:25:55;;;;;;;4.25;2.50;;;11.30;99.90;;;;;;5075084;28;20067;-76
2022/04/26 07:28:22;;;;;;;3.75;2.30;;;11.50;99.90;;;;;;5059192;28;20051;-76
2022/04/26 07:30:48;;;;;;;5.00;2.55;;;11.80;99.90;;;;;;5063295;28;20045;-76
2022/04/26 07:35:58;;;;;;;4.75;2.38;;;12.00;99.90;;;;;;5113553;27;20059;-76
2022/04/26 07:38:24;;;;;;;4.40;2.42;;;12.00;99.90;;;;;;5064175;28;20048;-76
2022/04/26 07:40:49;;;;;;;6.10;2.42;;;12.00;99.90;;;;;;5079903;28;20052;-76
2022/04/26 07:43:15;;;;;;;4.50;2.63;;;12.00;99.90;;;;;;5061967;28;20106;-76
2022/04/26 07:45:43;;;;;;;4.68;2.33;;;12.10;99.90;;;;;;5080014;28;20102;-76
2022/04/26 07:48:09;;;;;;;4.75;2.40;;;12.00;99.90;;;;;;5063952;28;20052;-76
2022/04/26 07:50:36;;;;;;;4.53;2.05;;;11.90;99.90;;;;;;5063413;28;20747;-75
2022/04/26 07:53:03;;;;;;;5.50;2.40;;;12.00;99.90;;;;;;5080006;28;20040;-76
2022/04/26 07:55:30;;;;;;;3.60;2.00;;;12.30;99.90;;;;;;5063937;28;20484;-76
2022/04/26 07:57:58;;;;;;;3.03;2.10;;;12.70;99.90;;;;;;5079733;28;20493;-76
2022/04/26 08:00:25;;;;;;;3.95;2.08;;;13.00;99.90;;;;;;5064751;28;20509;-76
2022/04/26 08:02:50;;;;;;;5.72;2.20;;;13.30;99.90;;;;;;5114830;27;20131;-77
2022/04/26 08:05:16;;;;;;;6.10;2.30;;;13.50;99.90;;;;;;5079059;28;20541;-75
2022/04/26 08:07:42;;;;;;;4.82;2.03;;;13.80;99.90;;;;;;5078985;28;20105;-76
2022/04/26 08:10:10;;;;;;;6.38;1.95;;;14.10;99.90;;;;;;5077694;28;20121;-76
2022/04/26 08:12:40;;;;;;;4.10;2.40;;;14.30;99.90;;;;;;5046701;28;20062;-76
2022/04/26 08:15:07;;;;;;;3.70;1.90;;;14.50;99.90;;;;;;5112398;27;20127;-76
2022/04/26 08:17:34;;;;;;;4.35;1.90;;;14.60;99.90;;;;;;5078802;28;20049;-72
2022/04/26 08:19:59;;;;;;;5.57;2.00;;;14.80;99.90;;;;;;5111551;27;20040;-77
2022/04/26 08:22:25;;;;;;;4.28;2.20;;;15.00;99.90;;;;;;5080799;28;20493;-76
2022/04/26 08:27:35;;;;;;;4.60;1.98;;;15.30;99.90;;;;;;5079583;28;20583;-77
2022/04/26 08:30:03;;;;;;;4.18;1.88;;;15.20;99.90;;;;;;5079686;28;20062;-76
2022/04/26 08:32:42;;;;;;;5.18;2.10;;;15.20;99.90;;;;;;5078115;28;20048;-76
2022/04/26 08:35:11;;;;;;;4.15;1.75;;;15.40;99.90;;;;;;5077159;28;20054;-76
2022/04/26 08:37:38;;;;;;;4.28;2.03;;;15.70;99.90;;;;;;5062369;28;20060;-77
2022/04/26 08:40:06;;;;;;;3.45;2.00;;;15.90;99.90;;;;;;5061214;28;20051;-76
2022/04/26 08:42:39;;;;;;;2.67;1.50;;;16.20;99.90;;;;;;5112416;27;20056;-77
2022/04/26 08:45:07;;;;;;;4.70;2.35;;;16.40;99.90;;;;;;5079740;28;20056;-76
2022/04/26 08:53:04;;;;;;;3.78;1.80;;;17.00;99.80;;;;;;5075524;28;20043;-75
2022/04/26 08:55:31;;;;;;;3.83;1.95;;;17.10;99.50;;;;;;5110683;27;20044;-77
2022/04/26 08:57:58;;;;;;;3.40;2.03;;;17.20;99.30;;;;;;5078179;28;20051;-77
2022/04/26 09:00:24;;;;;;;4.30;1.77;;;17.30;98.90;;;;;;5111977;27;20128;-77
2022/04/26 09:03:04;;;;;;;4.78;1.60;;;17.40;98.50;;;;;;5092200;28;20040;-77
2022/04/26 09:05:30;;;;;;;3.25;1.90;;;17.40;96.70;;;;;;5062719;28;20095;-76
2022/04/26 09:07:58;;;;;;;3.28;2.08;;;17.40;97.70;;;;;;5050690;28;20545;-77
2022/04/26 09:10:25;;;;;;;2.88;1.70;;;17.30;97.80;;;;;;5070834;28;20052;-77
2022/04/26 09:13:04;;;;;;;2.45;1.77;;;17.40;97.60;;;;;;5055925;28;20135;-77
2022/04/26 09:15:38;;;;;;;4.35;1.70;;;17.70;96.00;;;;;;5054096;28;20071;-77
2022/04/26 09:18:30;;;;;;;3.42;1.60;;;17.80;96.10;;;;;;5070761;28;20139;-77
2022/04/26 09:21:05;;;;;;;3.03;1.50;;;17.90;93.20;;;;;;5106778;27;20545;-77
2022/04/26 09:23:32;;;;;;;3.60;1.60;;;18.00;94.80;;;;;;5039344;28;20188;-77
2022/04/26 09:26:07;;;;;;;4.60;1.83;;;18.20;95.30;;;;;;5072221;28;20052;-77
2022/04/26 09:28:34;;;;;;;3.35;1.48;;;18.20;94.10;;;;;;5072908;28;20058;-77
2022/04/26 09:31:00;;;;;;;3.95;1.83;;;18.20;94.10;;;;;;5071157;28;20131;-77
2022/04/26 09:33:38;;;;;;;4.18;1.75;;;18.30;94.00;;;;;;5072516;28;20128;-77
2022/04/26 09:36:14;;;;;;;3.38;1.55;;;18.50;92.60;;;;;;5104195;27;20485;-77
2022/04/26 09:38:55;;;;;;;2.95;1.25;;;18.70;92.20;;;;;;5053769;28;20817;-76
2022/04/26 09:41:21;;;;;;;2.88;1.50;;;18.70;91.80;;;;;;5080051;28;20091;-76
2022/04/26 09:44:08;;;;;;;2.40;1.40;;;18.60;92.10;;;;;;5044052;28;20165;-76
2022/04/26 09:46:40;;;;;;;3.70;1.55;;;18.80;91.40;;;;;;5075814;28;20055;-76
2022/04/26 09:49:09;;;;;;;4.22;1.60;;;19.00;91.40;;;;;;5041724;28;20052;-76
2022/04/26 09:51:36;;;;;;;3.15;1.35;;;19.20;91.60;;;;;;5057004;28;20052;-76
2022/04/26 09:54:03;;;;;;;3.60;1.60;;;19.40;90.70;;;;;;5070954;28;20132;-77
2022/04/26 09:56:30;;;;;;;4.40;1.50;;;19.50;90.40;;;;;;5072004;28;20494;-76
2022/04/26 09:58:58;;;;;;;2.25;1.70;;;19.50;88.00;;;;;;5054818;28;20093;-77
2022/04/26 10:01:31;;;;;;;3.35;1.30;;;19.40;86.50;;;;;;5038192;28;20725;-76
2022/04/26 10:04:02;;;;;;;4.00;1.70;;;19.40;84.00;;;;;;5106313;27;20039;-76
2022/04/26 10:06:36;;;;;;;2.92;1.48;;;19.50;85.60;;;;;;5070999;28;20046;-72
2022/04/26 10:09:03;;;;;;;2.60;1.58;;;19.50;85.40;;;;;;5068673;28;20058;-76
2022/04/26 10:11:30;;;;;;;2.78;1.35;;;19.40;85.30;;;;;;5071271;28;20083;-75
2022/04/26 10:13:57;;;;;;;3.90;1.52;;;19.30;85.30;;;;;;5084149;27;20064;-76
2022/04/26 10:16:24;;;;;;;2.20;1.15;;;19.40;84.70;;;;;;5030332;28;20572;-77
2022/04/26 10:18:51;;;;;;;3.22;1.30;;;19.70;82.70;;;;;;5047820;28;20106;-76
2022/04/26 10:21:23;;;;;;;3.83;1.60;;;20.10;81.70;;;;;;5045911;28;20673;-75
2022/04/26 10:23:52;;;;;;;2.40;1.35;;;20.40;79.90;;;;;;5015108;28;20450;-76
2022/04/26 10:28:57;;;;;;;2.97;1.40;;;20.60;77.40;;;;;;5063920;28;20504;-77
2022/04/26 10:31:44;;;;;;;2.53;1.30;;;20.40;75.40;;;;;;5016940;28;20033;-73
2022/04/26 10:34:16;;;;;;;2.47;1.33;;;20.50;72.80;;;;;;5042442;28;20110;-77
2022/04/26 10:36:43;;;;;;;3.90;1.50;;;20.60;74.50;;;;;;5043407;28;20052;-77
2022/04/26 10:39:09;;;;;;;2.28;1.30;;;20.70;74.40;;;;;;4999141;28;20051;-78
2022/04/26 10:41:43;;;;;;;3.50;1.58;;;20.90;74.70;;;;;;5042850;28;20041;-78
2022/04/26 10:44:21;;;;;;;2.83;1.30;;;21.00;69.80;;;;;;5026777;28;20824;-77
2022/04/26 10:46:50;;;;;;;2.30;1.42;;;20.90;71.20;;;;;;5026093;28;20052;-77
2022/04/26 10:49:19;;;;;;;3.15;1.65;;;21.00;71.20;;;;;;5014240;28;20053;-76
2022/04/26 10:51:45;;;;;;;3.60;1.50;;;21.10;70.00;;;;;;5014796;28;20051;-76
2022/04/26 10:54:10;;;;;;;3.22;1.70;;;21.10;71.20;;;;;;5043395;28;20049;-78
2022/04/26 10:56:36;;;;;;;2.65;1.20;;;20.80;70.10;;;;;;5032940;28;20689;-78
2022/04/26 10:59:13;;;;;;;3.22;1.30;;;21.00;70.70;;;;;;5027457;28;20060;-78
2022/04/26 11:01:39;;;;;;;3.67;1.58;;;20.80;69.00;;;;;;5027693;28;20052;-80
2022/04/26 11:04:05;;;;;;;2.63;1.40;;;21.00;70.40;;;;;;5012581;28;20040;-76
2022/04/26 11:06:36;;;;;;;4.05;1.50;;;21.10;70.20;;;;;;5026087;28;20141;-77
2022/04/26 11:09:10;;;;;;;4.07;1.40;;;21.10;69.00;;;;;;5042315;28;20037;-76
2022/04/26 11:11:55;;;;;;;3.00;1.20;;;21.20;67.30;;;;;;5013154;28;20061;-77
2022/04/26 11:14:22;;;;;;;2.78;1.30;;;21.00;68.00;;;;;;5079667;28;20139;-76
2022/04/26 11:16:59;;;;;;;2.72;1.48;;;21.00;69.10;;;;;;5096137;27;20055;-77
2022/04/26 11:19:33;;;;;;;2.70;1.27;;;21.10;67.30;;;;;;5095712;28;20576;-76
2022/04/26 11:22:10;;;;;;;2.53;1.30;;;21.10;68.30;;;;;;5063615;28;20383;-76
2022/04/26 11:30:08;;;;;;;2.72;1.50;;;20.70;65.30;;;;;;5098682;28;19924;-75
2022/04/26 11:32:38;;;;;;;4.30;1.45;;;20.40;68.50;;;;;;5063398;28;20068;-76
2022/04/26 11:35:05;;;;;;;5.22;1.58;;;20.70;68.40;;;;;;5064171;28;20051;-76
2022/04/26 11:37:31;;;;;;;3.58;1.50;;;20.80;67.40;;;;;;5061511;28;20131;-77
2022/04/26 11:39:57;;;;;;;2.97;1.40;;;21.10;67.40;;;;;;5045505;28;20048;-76
2022/04/26 11:42:24;;;;;;;4.95;1.48;;;21.30;66.80;;;;;;5049967;28;20048;-76
2022/04/26 11:44:57;;;;;;;2.85;1.65;;;21.30;66.10;;;;;;5051960;28;20099;-77
2022/04/26 11:47:49;;;;;;;3.50;1.52;;;21.40;66.10;;;;;;5070292;28;20072;-77
2022/04/26 11:50:21;;;;;;;3.45;1.23;;;21.60;65.30;;;;;;5067573;28;20272;-76
2022/04/26 11:52:49;;;;;;;4.18;1.45;;;21.50;65.10;;;;;;5097479;28;20040;-76
2022/04/26 11:55:23;;;;;;;3.63;1.98;;;21.50;65.70;;;;;;5050833;28;20489;-76
2022/04/26 11:57:49;;;;;;;3.05;1.50;;;21.40;65.70;;;;;;5063807;28;20531;-77
2022/04/26 12:00:18;;;;;;;3.47;1.38;;;21.00;65.90;;;;;;5061926;28;20087;-75
2022/04/26 12:02:48;;;;;;;4.40;1.70;;;20.70;65.50;;;;;;5048745;28;20036;-78
2022/04/26 12:05:21;;;;;;;3.50;1.70;;;20.00;66.00;;;;;;5045032;28;20501;-76
2022/04/26 12:07:49;;;;;;;6.88;2.00;;;19.30;67.00;;;;;;5059507;28;20055;-76
2022/04/26 12:10:25;;;;;;;4.13;1.50;;;18.70;69.10;;;;;;5047438;28;20113;-76
2022/04/26 12:13:03;;;;;;;3.05;1.63;;;18.40;70.50;;;;;;5096713;28;20070;-76
2022/04/26 12:15:31;;;;;;;3.67;1.80;;;18.10;72.00;;;;;;5079893;28;20048;-77
2022/04/26 12:18:13;;;;;;;3.65;1.60;;;18.00;73.40;;;;;;5051520;28;20044;-77
2022/04/26 12:20:59;;;;;;;3.95;1.60;;;18.10;73.30;;;;;;5099274;27;20048;-76
2022/04/26 12:23:26;;;;;;;;;;;18.10;74.00;;;;;;5066192;28;20334;-77
2022/04/26 12:26:03;;;;;;;2.78;1.58;;;17.70;73.20;;;;;;5082033;28;20421;-77
2022/04/26 12:28:29;;;;;;;3.47;1.60;;;17.40;74.10;;;;;;5063174;28;20082;-77
2022/04/26 12:30:55;;;;;;;5.80;1.95;;;17.40;75.50;;;;;;5051894;28;20167;-77
2022/04/26 12:33:34;;;;;;;5.78;1.67;;;17.40;76.70;;;;;;5065838;28;20047;-76
2022/04/26 12:36:05;;;;;;;3.50;1.65;;;17.30;76.70;;;;;;5066678;28;20040;-76
2022/04/26 12:38:47;;;;;;;4.80;1.70;;;17.40;77.90;;;;;;5052668;28;20047;-76
2022/04/26 12:41:12;;;;;;;3.20;1.55;;;17.30;77.70;;;;;;5052977;28;20158;-76
2022/04/26 12:43:38;;;;;;;3.42;1.73;;;17.30;78.30;;;;;;5066796;28;20040;-77
2022/04/26 12:46:08;;;;;;;4.85;1.73;;;17.80;78.70;;;;;;5037057;28;20231;-78
2022/04/26 12:51:28;;;;;;;4.13;1.65;;;18.20;77.40;;;;;;5052729;28;20082;-76
2022/04/26 12:54:08;;;;;;;2.55;1.40;;;18.10;77.20;;;;;;5063517;28;20040;-75
2022/04/26 12:56:34;;;;;;;4.32;1.58;;;17.80;77.30;;;;;;5050600;28;20331;-76
2022/04/26 12:58:59;;;;;;;3.35;1.48;;;17.60;77.70;;;;;;5082813;28;20477;-76
2022/04/26 13:01:25;;;;;;;2.63;1.63;;;17.50;77.70;;;;;;5084644;27;20048;-76
2022/04/26 13:03:51;;;;;;;2.95;1.60;;;17.30;77.50;;;;;;5084379;28;20135;-76
2022/04/26 13:06:18;;;;;;;2.40;1.63;;;17.00;77.90;;;;;;5052754;28;20056;-77
2022/04/26 13:08:46;;;;;;;4.82;1.83;;;16.70;79.20;;;;;;5038507;28;20580;-76
2022/04/26 13:11:14;;;;;;;3.83;1.52;;;16.50;80.80;;;;;;5070446;28;20436;-75
2022/04/26 13:13:40;;;;;;;3.63;1.85;;;16.50;83.10;;;;;;5051691;28;20060;-76
2022/04/26 13:16:07;;;;;;;3.75;2.40;;;16.40;85.70;;;;;;5069606;28;20047;-75
2022/04/26 13:18:33;;;;;;;3.70;2.03;;;16.30;87.30;;;;;;5039022;28;20048;-76
2022/04/26 13:21:00;;;;;;;3.88;1.88;;;16.20;89.30;;;;;;5072744;28;20044;-75
2022/04/26 13:23:28;;;;;;;4.32;1.90;;;16.20;90.00;;;;;;5102620;27;20083;-78
2022/04/26 13:25:54;;;;;;;4.57;1.80;;;16.40;90.00;;;;;;5105062;27;20051;-76
2022/04/26 13:28:20;;;;;;;3.70;1.65;;;16.80;89.70;;;;;;5106058;27;20041;-76
2022/04/26 13:30:46;;;;;;;2.92;1.42;;;17.00;86.90;;;;;;5051719;28;20401;-77
2022/04/26 13:33:12;;;;;;;4.88;1.80;;;17.10;86.60;;;;;;5104261;27;20052;-76
2022/04/26 13:35:38;;;;;;;2.53;1.40;;;17.00;85.10;;;;;;5054785;28;20036;-76
2022/04/26 13:38:11;;;;;;;3.58;1.60;;;17.00;85.20;;;;;;5087892;28;20047;-76
2022/04/26 13:40:38;;;;;;;4.05;1.67;;;16.80;84.30;;;;;;5068902;28;20645;-76
2022/04/26 13:43:06;;;;;;;3.65;1.50;;;16.70;83.80;;;;;;5088798;28;20055;-75
2022/04/26 13:45:32;;;;;;;3.75;1.80;;;16.50;83.40;;;;;;5068573;28;20052;-76
2022/04/26 13:48:08;;;;;;;3.78;1.70;;;16.40;83.70;;;;;;5072959;28;20052;-78
2022/04/26 13:50:34;;;;;;;3.15;1.40;;;16.40;83.20;;;;;;5052578;28;20478;-77
2022/04/26 13:52:59;;;;;;;4.30;1.60;;;16.40;82.90;;;;;;5039688;28;20093;-77
2022/04/26 13:55:26;;;;;;;3.17;1.45;;;16.50;83.00;;;;;;5066891;28;20044;-73
2022/04/26 13:57:56;;;;;;;3.88;1.70;;;16.60;82.90;;;;;;5105728;27;20512;-77
2022/04/26 14:00:22;;;;;;;4.35;1.42;;;16.60;80.70;;;;;;5083499;28;20036;-77
2022/04/26 14:02:48;;;;;;;4.78;1.58;;;16.70;81.10;;;;;;5038358;28;20147;-78
2022/04/26 14:05:16;;;;;;;5.20;1.75;;;16.80;81.40;;;;;;5052339;28;20400;-78
2022/04/26 14:07:42;;;;;;;3.42;1.50;;;17.00;81.10;;;;;;5054267;28;20110;-77
2022/04/26 14:10:08;;;;;;;3.63;1.55;;;17.00;80.10;;;;;;5055885;28;20848;-76
2022/04/26 14:12:35;;;;;;;3.55;1.48;;;17.20;80.00;;;;;;5070888;28;20056;-78
2022/04/26 14:23:14;;;;;;;4.72;1.80;;;18.40;77.70;;;;;;5069184;28;20465;-77
2022/04/26 14:25:41;;;;;;;2.83;1.40;;;18.80;76.20;;;;;;5050150;28;20117;-78
2022/04/26 14:28:07;;;;;;;4.03;1.45;;;19.10;76.00;;;;;;5049997;28;20036;-77
2022/04/26 14:30:33;;;;;;;2.60;1.42;;;19.50;75.50;;;;;;5048690;28;20044;-77
2022/04/26 14:32:58;;;;;;;3.97;1.45;;;19.70;73.90;;;;;;5071811;28;20049;-78
2022/04/26 14:35:25;;;;;;;3.08;1.45;;;19.70;72.00;;;;;;5100798;27;20485;-78
2022/04/26 14:37:53;;;;;;;4.00;1.60;;;19.80;71.10;;;;;;5050509;28;20053;-82
2022/04/26 14:40:19;;;;;;;3.97;1.40;;;20.00;72.10;;;;;;5089521;28;20044;-78
2022/04/26 14:42:46;;;;;;;3.92;1.50;;;20.10;70.90;;;;;;5054428;28;20044;-78
2022/04/26 14:45:13;;;;;;;3.95;1.48;;;20.10;70.40;;;;;;5044683;28;20151;-78
2022/04/26 14:47:40;;;;;;;4.22;1.52;;;20.20;71.00;;;;;;5056178;28;20052;-78
2022/04/26 14:50:09;;;;;;;5.38;1.65;;;20.40;71.00;;;;;;5042325;28;20048;-78
2022/04/26 14:52:36;;;;;;;4.70;1.48;;;20.40;69.60;;;;;;5071631;28;20044;-77
2022/04/26 14:55:08;;;;;;;3.60;1.50;;;20.40;69.40;;;;;;5073853;28;20123;-74
2022/04/26 14:57:34;;;;;;;3.78;1.20;;;20.40;70.10;;;;;;5074184;28;20055;-79
2022/04/26 15:00:00;;;;;;;4.97;1.50;;;20.50;70.40;;;;;;5046664;28;20055;-80
2022/04/26 15:02:26;;;;;;;4.18;1.42;;;20.60;69.80;;;;;;5056812;28;20044;-77
2022/04/26 15:04:52;;;;;;;3.00;1.40;;;20.50;69.00;;;;;;5043361;28;20049;-76
2022/04/26 15:07:18;;;;;;;2.75;1.40;;;20.50;69.10;;;;;;5044317;28;20048;-76
2022/04/26 15:09:44;;;;;;;3.47;1.83;;;20.40;69.40;;;;;;5075953;28;20054;-79
2022/04/26 15:17:49;;;;;;;2.80;1.70;;;20.20;69.00;;;;;;5093041;28;20044;-79
2022/04/26 15:20:19;;;;;;;3.78;1.40;;;20.00;69.20;;;;;;5059188;28;20037;-78
2022/04/26 15:22:46;;;;;;;5.22;2.00;;;19.60;68.90;;;;;;5042370;28;20087;-74
2022/04/26 15:25:12;;;;;;;4.35;1.50;;;19.40;69.00;;;;;;5058170;28;20040;-77
2022/04/26 15:27:38;;;;;;;5.20;1.55;;;19.20;69.40;;;;;;5056597;28;20056;-77
2022/04/26 15:30:07;;;;;;;2.38;1.42;;;19.20;69.90;;;;;;5072316;28;20123;-79
2022/04/26 15:32:33;;;;;;;4.60;1.80;;;19.00;69.40;;;;;;5074031;28;20127;-76
2022/04/26 15:34:59;;;;;;;2.35;1.30;;;18.60;69.60;;;;;;5074815;28;20049;-77
2022/04/26 15:37:25;;;;;;;3.42;1.27;;;18.50;70.60;;;;;;5075305;28;20055;-77
2022/04/26 15:39:53;;;;;;;2.70;1.45;;;18.70;71.60;;;;;;5107249;28;20063;-75
2022/04/26 15:42:19;;;;;;;2.50;1.40;;;18.50;71.30;;;;;;5060060;28;20457;-76
2022/04/26 15:44:45;;;;;;;6.25;2.42;;;18.30;71.10;;;;;;5074355;28;20060;-74
2022/04/26 15:47:14;;;;;;;3.25;1.60;;;17.90;71.70;;;;;;5043809;28;20059;-75
2022/04/26 15:49:40;;;;;;;3.53;1.58;;;17.60;72.50;;;;;;5044378;28;20048;-77
2022/04/26 15:52:07;;;;;;;3.78;1.60;;;17.50;72.80;;;;;;5076344;28;20051;-74
2022/04/26 15:54:34;;;;;;;4.10;2.40;;;17.30;73.30;;;;;;5042111;28;20052;-73
2022/04/26 15:57:00;;;;;;;3.90;1.52;;;17.20;74.10;;;;;;5114395;27;20090;-77
2022/04/26 15:59:26;;;;;;;5.30;1.90;;;16.90;74.20;;;;;;5045798;28;20079;-76
2022/04/26 16:01:51;;;;;;;3.75;1.77;;;16.50;75.20;;;;;;5035123;28;20048;-77
2022/04/26 16:04:17;;;;;;;3.67;1.50;;;16.20;76.50;;;;;;5064087;28;20481;-74
2022/04/26 16:06:43;;;;;;;5.30;1.60;;;15.80;79.00;;;;;;5045446;28;20075;-75
2022/04/26 16:22:54;;;;;;;2.83;1.90;;;14.70;88.10;;;;;;5076461;28;20505;-75
2022/04/26 16:25:19;;;;;;;3.60;1.40;;;14.70;88.60;;;;;;5080144;28;20087;-75
2022/04/26 16:27:46;;;;;;;2.90;1.27;;;14.30;89.20;;;;;;5074733;28;20048;-76
2022/04/26 16:30:12;;;;;;;3.25;1.50;;;14.80;90.20;;;;;;5059076;28;20126;-77
2022/04/26 16:32:38;;;;;;;3.70;1.50;;;14.90;90.40;;;;;;5045964;28;20043;-76
2022/04/26 16:35:08;;;;;;;3.33;1.40;;;15.00;90.70;;;;;;5061315;28;20052;-76
2022/04/26 16:37:44;;;;;;;2.85;1.30;;;15.10;91.00;;;;;;5078109;28;20444;-75
2022/04/26 16:40:10;;;;;;;6.68;1.60;;;15.00;91.20;;;;;;5096933;27;20528;-75
2022/04/26 16:42:38;;;;;;;3.05;1.48;;;14.80;91.50;;;;;;5042635;28;20071;-75
2022/04/26 16:45:04;;;;;;;4.50;1.50;;;14.60;91.90;;;;;;5058678;28;20113;-76
2022/04/26 16:47:30;;;;;;;3.47;1.58;;;14.30;92.60;;;;;;5070283;28;20623;-77
2022/04/26 16:49:56;;;;;;;3.67;1.58;;;14.10;93.10;;;;;;5057288;28;20056;-75
2022/04/26 16:52:22;;;;;;;5.68;1.83;;;13.90;93.80;;;;;;5070960;28;20131;-78
2022/04/26 16:54:49;;;;;;;3.55;1.40;;;13.70;94.50;;;;;;5041657;28;20397;-76
2022/04/26 16:57:16;;;;;;;7.93;1.70;;;13.50;95.50;;;;;;5073979;28;20405;-76
2022/04/26 16:59:42;;;;;;;4.47;1.85;;;14.00;96.70;;;;;;5088161;28;20059;-76
2022/04/26 17:02:07;;;;;;;4.97;1.73;;;13.30;97.40;;;;;;5040148;28;20036;-75
2022/04/26 17:04:33;;;;;;;6.43;1.70;;;13.00;97.90;;;;;;5050887;28;20040;-79
2022/04/26 17:07:00;;;;;;;3.63;1.50;;;12.90;98.50;;;;;;5070472;28;20067;-76
2022/04/26 17:09:26;;;;;;;4.47;1.63;;;12.80;99.00;;;;;;5075571;28;20052;-75
2022/04/26 17:11:52;;;;;;;4.32;1.48;;;12.60;99.50;;;;;;5056496;28;20556;-76
2022/04/26 17:14:19;;;;;;;4.55;1.40;;;12.50;99.60;;;;;;5071547;28;20079;-75
2022/04/26 17:16:48;;;;;;;2.83;1.38;;;12.40;99.70;;;;;;5099292;27;20125;-75
2022/04/26 17:19:15;;;;;;;5.78;1.80;;;12.30;99.90;;;;;;5102966;27;20078;-74
2022/04/26 17:21:41;;;;;;;4.10;1.50;;;12.20;99.90;;;;;;5071351;28;20059;-76